Time;durP1;ratioP1;P1;durP2;ratioP2;P2;SDS_P1;SDS_P2;PMS_P1;PMS_P2;Temp;Humidity;BMP_temperature;BMP_pressure;BME280_temperature;BME280_humidity;BME280_pressure;Samples;Min_cycle;Max_cycle;Signal;HPM_P1;HPM_P2
2023/04/09 00:01:22;;;;;;;51.83;37.40;;;9.20;99.90;;;;;;4792487;30;20304;-79
2023/04/09 00:03:47;;;;;;;50.20;37.33;;;9.20;99.90;;;;;;4792335;30;20170;-79
2023/04/09 00:06:13;;;;;;;57.20;40.50;;;9.20;99.90;;;;;;4792576;30;20081;-79
2023/04/09 00:08:39;;;;;;;52.83;39.43;;;9.20;99.90;;;;;;4791792;30;20051;-79
2023/04/09 00:11:05;;;;;;;54.30;38.10;;;9.20;99.90;;;;;;4792179;30;20385;-79
2023/04/09 00:13:31;;;;;;;52.37;39.03;;;9.20;99.90;;;;;;4791664;30;20051;-79
2023/04/09 00:15:56;;;;;;;51.23;38.50;;;9.30;99.90;;;;;;4775551;30;20346;-79
2023/04/09 00:18:22;;;;;;;50.03;37.60;;;9.20;99.90;;;;;;4775611;30;20104;-79
2023/04/09 00:20:48;;;;;;;48.00;34.37;;;9.20;99.90;;;;;;4792030;29;20140;-79
2023/04/09 00:23:14;;;;;;;49.83;36.90;;;9.30;99.90;;;;;;4791497;30;20052;-80
2023/04/09 00:25:40;;;;;;;47.93;35.13;;;9.20;99.90;;;;;;4775901;30;20138;-79
2023/04/09 00:28:05;;;;;;;44.27;34.60;;;9.20;99.90;;;;;;4775320;30;20141;-79
2023/04/09 00:30:31;;;;;;;46.50;33.53;;;9.20;99.90;;;;;;4791424;30;20051;-79
2023/04/09 00:32:57;;;;;;;47.30;34.57;;;9.30;99.90;;;;;;4791821;30;20473;-79
2023/04/09 00:35:24;;;;;;;46.97;34.03;;;9.30;99.90;;;;;;4791572;30;20111;-79
2023/04/09 00:37:49;;;;;;;43.30;32.90;;;9.30;99.90;;;;;;4775378;30;20745;-79
2023/04/09 00:40:15;;;;;;;42.60;32.47;;;9.30;99.90;;;;;;4776129;30;20325;-79
2023/04/09 00:42:41;;;;;;;40.13;31.37;;;9.30;99.90;;;;;;4791934;30;20070;-80
2023/04/09 00:45:07;;;;;;;40.03;32.03;;;9.30;99.90;;;;;;4775103;30;20062;-79
2023/04/09 00:47:34;;;;;;;40.90;30.67;;;9.30;99.90;;;;;;4791137;30;20074;-79
2023/04/09 00:50:00;;;;;;;41.70;30.87;;;9.30;99.90;;;;;;4791102;29;20451;-79
2023/04/09 00:52:29;;;;;;;42.43;28.03;;;9.30;99.90;;;;;;4775221;30;20640;-79
2023/04/09 00:54:57;;;;;;;43.20;30.30;;;9.20;99.90;;;;;;4790984;29;20348;-79
2023/04/09 00:57:23;;;;;;;38.53;28.63;;;9.20;99.90;;;;;;4791070;29;20386;-79
2023/04/09 00:59:49;;;;;;;39.33;28.93;;;9.20;99.90;;;;;;4775082;30;20347;-79
2023/04/09 01:02:15;;;;;;;39.83;29.97;;;9.20;99.90;;;;;;4775306;30;20044;-79
2023/04/09 01:04:42;;;;;;;39.43;29.90;;;9.20;99.90;;;;;;4791241;29;20295;-79
2023/04/09 01:07:22;;;;;;;44.67;32.20;;;9.20;99.90;;;;;;4790795;30;20098;-79
2023/04/09 01:10:11;;;;;;;44.60;31.60;;;9.20;99.90;;;;;;4774699;30;20411;-79
2023/04/09 01:12:55;;;;;;;42.90;32.17;;;9.20;99.90;;;;;;4791066;30;20308;-80
2023/04/09 01:15:28;;;;;;;44.97;32.83;;;9.10;99.90;;;;;;4790663;29;20293;-80
2023/04/09 01:18:29;;;;;;;45.67;33.53;;;9.10;99.90;;;;;;4791191;30;20752;-79
2023/04/09 01:21:08;;;;;;;46.30;33.23;;;9.10;99.90;;;;;;4786679;30;20632;-79
2023/04/09 01:23:42;;;;;;;52.37;35.93;;;9.10;99.90;;;;;;4775276;30;20364;-80
2023/04/09 01:26:45;;;;;;;53.60;36.87;;;9.10;99.90;;;;;;4790509;30;20296;-79
2023/04/09 01:29:11;;;;;;;49.53;35.30;;;9.10;99.90;;;;;;4774376;30;20650;-79
2023/04/09 01:31:38;;;;;;;54.77;36.63;;;9.10;99.90;;;;;;4790406;30;20692;-80
2023/04/09 01:34:06;;;;;;;56.73;39.13;;;9.00;99.90;;;;;;4791406;30;20372;-80
2023/04/09 01:36:32;;;;;;;67.87;39.37;;;9.00;99.90;;;;;;4790315;30;20296;-79
2023/04/09 01:39:01;;;;;;;61.27;41.03;;;9.00;99.90;;;;;;4774047;30;20308;-79
2023/04/09 01:41:29;;;;;;;58.77;39.43;;;8.90;99.90;;;;;;4790715;30;20296;-80
2023/04/09 01:43:57;;;;;;;60.17;40.93;;;8.90;99.90;;;;;;4790156;30;20301;-79
2023/04/09 01:46:24;;;;;;;65.93;41.87;;;8.90;99.90;;;;;;4790220;30;20380;-79
2023/04/09 01:48:50;;;;;;;63.00;40.67;;;8.80;99.90;;;;;;4790079;30;20690;-79
2023/04/09 01:51:16;;;;;;;61.87;40.33;;;8.80;99.90;;;;;;4774152;30;20301;-79
2023/04/09 01:53:42;;;;;;;61.50;42.67;;;8.80;99.90;;;;;;4790548;30;20292;-79
2023/04/09 01:56:08;;;;;;;65.93;39.80;;;8.80;99.90;;;;;;4789978;29;20294;-79
2023/04/09 01:58:35;;;;;;;61.30;40.93;;;8.80;99.90;;;;;;4790000;29;20379;-79
2023/04/09 02:01:19;;;;;;;65.43;41.53;;;8.80;99.90;;;;;;4790123;30;20320;-79
2023/04/09 02:03:57;;;;;;;64.03;39.95;;;8.70;99.90;;;;;;4789852;30;20462;-79
2023/04/09 02:06:35;;;;;;;57.00;38.03;;;8.70;99.90;;;;;;4774784;30;20115;-79
2023/04/09 02:09:04;;;;;;;58.10;38.80;;;8.70;99.90;;;;;;4774713;30;20297;-79
2023/04/09 02:11:33;;;;;;;62.40;39.10;;;8.70;99.90;;;;;;4789676;29;20304;-79
2023/04/09 02:14:00;;;;;;;57.50;37.60;;;8.70;99.90;;;;;;4789616;30;20289;-78
2023/04/09 02:16:27;;;;;;;65.23;40.03;;;8.70;99.90;;;;;;4758603;29;20301;-79
2023/04/09 02:18:57;;;;;;;59.53;38.93;;;8.70;99.90;;;;;;4789942;30;20296;-80
2023/04/09 02:21:23;;;;;;;61.53;40.40;;;8.70;99.90;;;;;;4789567;29;20292;-80
2023/04/09 02:23:49;;;;;;;58.47;38.33;;;8.60;99.90;;;;;;4789436;29;20405;-80
2023/04/09 02:26:15;;;;;;;59.27;37.43;;;8.70;99.90;;;;;;4789983;29;20289;-79
2023/04/09 02:28:41;;;;;;;62.93;37.77;;;8.70;99.90;;;;;;4773509;30;20693;-79
2023/04/09 02:31:07;;;;;;;58.67;38.60;;;8.60;99.90;;;;;;4773602;30;20093;-79
2023/04/09 02:33:33;;;;;;;65.67;38.97;;;8.60;99.90;;;;;;4789381;30;20508;-79
2023/04/09 02:35:58;;;;;;;61.57;38.50;;;8.60;99.90;;;;;;4789341;29;20293;-80
2023/04/09 02:38:24;;;;;;;62.33;37.93;;;8.60;99.90;;;;;;4773173;30;20296;-79
2023/04/09 02:40:50;;;;;;;62.33;38.10;;;8.50;99.90;;;;;;4773170;30;20051;-79
2023/04/09 02:43:15;;;;;;;56.30;36.83;;;8.50;99.90;;;;;;4789595;29;20055;-79
2023/04/09 02:45:41;;;;;;;59.93;35.77;;;8.50;99.90;;;;;;4789148;30;20043;-79
2023/04/09 02:48:07;;;;;;;60.60;34.97;;;8.50;99.90;;;;;;4773197;30;20052;-79
2023/04/09 02:50:32;;;;;;;55.53;35.57;;;8.50;99.90;;;;;;4789074;30;20109;-80
2023/04/09 02:52:58;;;;;;;55.80;35.07;;;8.40;99.90;;;;;;4789036;30;20442;-80
2023/04/09 02:55:24;;;;;;;52.37;34.67;;;8.40;99.90;;;;;;4789465;29;20066;-79
2023/04/09 02:57:51;;;;;;;57.53;34.43;;;8.40;99.90;;;;;;4788903;30;20488;-79
2023/04/09 03:00:16;;;;;;;53.60;34.13;;;8.40;99.90;;;;;;4789135;30;20293;-78
2023/04/09 03:02:42;;;;;;;52.90;33.13;;;8.40;99.90;;;;;;4788827;30;20047;-79
2023/04/09 03:05:08;;;;;;;52.00;32.83;;;8.40;99.90;;;;;;4788824;30;20051;-78
2023/04/09 03:07:33;;;;;;;48.03;30.87;;;8.40;99.90;;;;;;4789534;30;20481;-78
2023/04/09 03:09:59;;;;;;;49.93;31.90;;;8.40;99.90;;;;;;4789244;30;20142;-79
2023/04/09 03:12:25;;;;;;;49.17;31.00;;;8.40;99.90;;;;;;4788688;30;20119;-78
2023/04/09 03:14:51;;;;;;;54.23;34.00;;;8.40;99.90;;;;;;4789184;30;20055;-79
2023/04/09 03:17:16;;;;;;;47.80;30.50;;;8.40;99.90;;;;;;4788602;30;20138;-79
2023/04/09 03:19:42;;;;;;;51.90;31.47;;;8.40;99.90;;;;;;4788729;30;20058;-79
2023/04/09 03:22:08;;;;;;;47.63;30.13;;;8.40;99.90;;;;;;4772908;30;20443;-79
2023/04/09 03:24:34;;;;;;;51.23;31.00;;;8.40;99.90;;;;;;4789025;30;20055;-79
2023/04/09 03:27:00;;;;;;;47.73;30.83;;;8.40;99.90;;;;;;4773443;30;20055;-80
2023/04/09 03:29:26;;;;;;;50.20;31.43;;;8.30;99.90;;;;;;4788175;29;20094;-79
2023/04/09 03:31:51;;;;;;;46.17;30.37;;;8.40;99.90;;;;;;4788664;30;20434;-79
2023/04/09 03:34:17;;;;;;;48.50;30.60;;;8.30;99.90;;;;;;4788173;30;20141;-79
2023/04/09 03:36:43;;;;;;;51.83;31.70;;;8.30;99.90;;;;;;4789124;30;20058;-80
2023/04/09 03:39:08;;;;;;;50.27;31.03;;;8.30;99.90;;;;;;4772512;30;20602;-79
2023/04/09 03:41:34;;;;;;;51.43;32.23;;;8.20;99.90;;;;;;4772559;30;20144;-79
2023/04/09 03:44:00;;;;;;;54.90;33.17;;;8.30;99.90;;;;;;4788251;29;20055;-79
2023/04/09 03:46:25;;;;;;;49.37;31.83;;;8.30;99.90;;;;;;4772280;30;20063;-79
2023/04/09 03:48:51;;;;;;;52.63;30.70;;;8.30;99.90;;;;;;4788284;30;20104;-79
2023/04/09 03:51:18;;;;;;;53.70;31.47;;;8.30;99.90;;;;;;4788242;30;20561;-79
2023/04/09 03:53:44;;;;;;;51.77;31.57;;;8.30;99.90;;;;;;4788264;29;20104;-79
2023/04/09 03:56:10;;;;;;;46.53;28.17;;;8.30;99.90;;;;;;4788186;30;20358;-79
2023/04/09 03:58:36;;;;;;;46.07;29.33;;;8.30;99.90;;;;;;4787823;30;20301;-79
2023/04/09 04:01:02;;;;;;;45.57;27.20;;;8.30;99.90;;;;;;4788214;30;20688;-80
2023/04/09 04:03:28;;;;;;;47.03;28.47;;;8.30;99.90;;;;;;4788032;30;20305;-79
2023/04/09 04:06:00;;;;;;;47.53;29.67;;;8.30;99.90;;;;;;4788380;30;20293;-79
2023/04/09 04:08:25;;;;;;;42.40;28.50;;;8.30;99.90;;;;;;4788660;30;20326;-79
2023/04/09 04:10:51;;;;;;;41.20;26.93;;;8.30;99.90;;;;;;4788368;30;20328;-79
2023/04/09 04:13:17;;;;;;;45.93;29.03;;;8.30;99.90;;;;;;4788156;30;20409;-79
2023/04/09 04:15:43;;;;;;;47.07;27.33;;;8.30;99.90;;;;;;4788063;29;20048;-80
2023/04/09 04:18:09;;;;;;;43.07;27.47;;;8.30;99.90;;;;;;4788075;30;20055;-79
2023/04/09 04:20:36;;;;;;;41.43;25.87;;;8.40;99.90;;;;;;4788138;29;20062;-79
2023/04/09 04:23:02;;;;;;;41.03;25.87;;;8.40;99.90;;;;;;4788415;30;20309;-79
2023/04/09 04:25:28;;;;;;;44.37;26.43;;;8.40;99.90;;;;;;4788535;30;20293;-79
2023/04/09 04:27:54;;;;;;;41.00;26.57;;;8.40;99.90;;;;;;4788079;30;20627;-79
2023/04/09 04:30:21;;;;;;;41.53;25.87;;;8.40;99.90;;;;;;4787627;30;20293;-79
2023/04/09 04:32:47;;;;;;;38.07;24.57;;;8.40;99.90;;;;;;4788002;30;20058;-79
2023/04/09 04:35:13;;;;;;;36.17;24.30;;;8.30;99.90;;;;;;4787939;29;20297;-80
2023/04/09 04:37:39;;;;;;;39.53;25.67;;;8.40;99.90;;;;;;4787929;29;20292;-79
2023/04/09 04:40:06;;;;;;;40.10;25.67;;;8.40;99.90;;;;;;4789050;29;20355;-80
2023/04/09 04:42:32;;;;;;;38.30;25.50;;;8.40;99.90;;;;;;4791122;29;20338;-80
2023/04/09 04:44:58;;;;;;;36.20;23.67;;;8.40;99.90;;;;;;4791284;30;20296;-80
2023/04/09 04:47:24;;;;;;;35.93;23.10;;;8.40;99.90;;;;;;4790855;30;20296;-80
2023/04/09 04:49:50;;;;;;;35.83;22.60;;;8.30;99.90;;;;;;4791149;30;20147;-79
2023/04/09 04:52:15;;;;;;;35.37;23.47;;;8.40;99.90;;;;;;4791033;29;20055;-79
2023/04/09 04:54:41;;;;;;;32.07;22.73;;;8.40;99.90;;;;;;4791302;30;20093;-79
2023/04/09 04:57:07;;;;;;;34.33;23.63;;;8.40;99.90;;;;;;4790688;29;20071;-79
2023/04/09 04:59:35;;;;;;;39.00;25.33;;;8.40;99.90;;;;;;4775688;30;20112;-79
2023/04/09 05:02:01;;;;;;;38.37;24.97;;;8.40;99.90;;;;;;4790777;30;20120;-79
2023/04/09 05:04:27;;;;;;;35.77;22.93;;;8.40;99.90;;;;;;4775753;30;20297;-79
2023/04/09 05:06:52;;;;;;;38.10;23.43;;;8.40;99.90;;;;;;4791148;30;20397;-79
2023/04/09 05:09:18;;;;;;;36.53;24.33;;;8.40;99.90;;;;;;4760149;30;20134;-80
2023/04/09 05:11:44;;;;;;;40.73;26.30;;;8.30;99.90;;;;;;4790807;30;20489;-80
2023/04/09 05:14:09;;;;;;;39.77;26.00;;;8.30;99.90;;;;;;4790712;30;20062;-79
2023/04/09 05:16:35;;;;;;;37.73;24.33;;;8.30;99.90;;;;;;4791209;30;20047;-79
2023/04/09 05:19:01;;;;;;;36.17;24.90;;;8.30;99.90;;;;;;4791162;29;20063;-79
2023/04/09 05:21:26;;;;;;;41.63;26.73;;;8.30;99.90;;;;;;4790562;30;20089;-79
2023/04/09 05:23:53;;;;;;;47.00;26.20;;;8.30;99.90;;;;;;4774466;30;20058;-79
2023/04/09 05:26:20;;;;;;;40.27;26.43;;;8.30;99.90;;;;;;4775362;30;20161;-80
2023/04/09 05:28:46;;;;;;;39.67;26.50;;;8.30;99.90;;;;;;4790960;30;20385;-80
2023/04/09 05:31:12;;;;;;;38.73;26.63;;;8.30;99.90;;;;;;4790189;29;20830;-80
2023/04/09 05:33:38;;;;;;;39.30;25.67;;;8.20;99.90;;;;;;4790382;30;20379;-79
2023/04/09 05:36:04;;;;;;;36.83;25.57;;;8.20;99.90;;;;;;4774285;30;20077;-79
2023/04/09 05:38:30;;;;;;;36.47;25.33;;;8.20;99.90;;;;;;4774441;30;20358;-80
2023/04/09 05:40:56;;;;;;;40.87;25.93;;;8.20;99.90;;;;;;4790284;30;20300;-80
2023/04/09 05:43:22;;;;;;;39.93;26.63;;;8.30;99.90;;;;;;4790015;30;20055;-80
2023/04/09 05:45:47;;;;;;;35.40;25.17;;;8.20;99.90;;;;;;4790888;30;20303;-80
2023/04/09 05:48:13;;;;;;;38.83;25.83;;;8.30;99.90;;;;;;4790841;29;20051;-79
2023/04/09 05:50:39;;;;;;;41.73;27.17;;;8.30;99.90;;;;;;4790132;30;20059;-80
2023/04/09 05:53:05;;;;;;;36.40;25.60;;;8.20;99.90;;;;;;4789468;29;20539;-80
2023/04/09 05:55:31;;;;;;;38.17;25.20;;;8.20;99.90;;;;;;4790067;30;20069;-80
2023/04/09 05:57:57;;;;;;;40.03;26.17;;;8.20;99.90;;;;;;4789597;30;20155;-80
2023/04/09 06:00:23;;;;;;;36.03;24.53;;;8.20;99.90;;;;;;4790598;30;20297;-79
2023/04/09 06:02:49;;;;;;;37.23;25.13;;;8.20;99.90;;;;;;4789769;30;20043;-80
2023/04/09 06:05:15;;;;;;;40.47;25.20;;;8.20;99.90;;;;;;4773806;30;20051;-80
2023/04/09 06:07:41;;;;;;;41.27;27.33;;;8.20;99.90;;;;;;4789750;30;20055;-79
2023/04/09 06:10:07;;;;;;;36.60;25.17;;;8.20;99.90;;;;;;4790438;30;20297;-79
2023/04/09 06:12:36;;;;;;;42.13;25.80;;;8.30;99.90;;;;;;4789622;30;20126;-79
2023/04/09 06:15:03;;;;;;;37.47;25.00;;;8.30;99.90;;;;;;4789482;30;20779;-80
2023/04/09 06:17:28;;;;;;;36.63;24.87;;;8.30;99.90;;;;;;4773546;30;20316;-78
2023/04/09 06:19:54;;;;;;;39.53;24.53;;;8.30;99.90;;;;;;4759444;30;20345;-80
2023/04/09 06:22:20;;;;;;;35.27;24.57;;;8.30;99.90;;;;;;4789225;29;20138;-80
2023/04/09 06:24:45;;;;;;;30.57;22.60;;;8.30;99.90;;;;;;4759550;30;20051;-80
2023/04/09 06:27:11;;;;;;;34.50;23.47;;;8.30;99.90;;;;;;4789519;29;20055;-80
2023/04/09 06:29:37;;;;;;;34.90;24.73;;;8.20;99.90;;;;;;4789619;30;20055;-80
2023/04/09 06:32:03;;;;;;;36.30;23.77;;;8.20;99.90;;;;;;4789337;30;20489;-81
2023/04/09 06:34:29;;;;;;;35.33;23.53;;;8.20;99.90;;;;;;4789379;30;20051;-81
2023/04/09 06:36:54;;;;;;;34.63;23.63;;;8.30;99.90;;;;;;4789322;30;20055;-81
2023/04/09 06:39:20;;;;;;;36.13;23.90;;;8.30;99.90;;;;;;4773220;30;20059;-80
2023/04/09 06:41:46;;;;;;;35.37;24.23;;;8.30;99.90;;;;;;4773096;30;20149;-81
2023/04/09 06:44:12;;;;;;;34.83;24.50;;;8.30;99.90;;;;;;4789182;29;20297;-81
2023/04/09 06:46:38;;;;;;;37.57;25.70;;;8.30;99.90;;;;;;4789157;30;20396;-83
2023/04/09 06:49:04;;;;;;;40.93;27.27;;;8.30;99.90;;;;;;4789635;30;20063;-83
2023/04/09 06:51:30;;;;;;;40.50;26.07;;;8.30;99.90;;;;;;4773104;30;20055;-84
2023/04/09 06:53:56;;;;;;;36.57;24.77;;;8.30;99.90;;;;;;4789501;30;20293;-82
2023/04/09 06:56:22;;;;;;;37.63;25.70;;;8.30;99.90;;;;;;4789025;30;20200;-81
2023/04/09 06:58:48;;;;;;;39.87;25.37;;;8.30;99.90;;;;;;4789574;30;20078;-83
2023/04/09 07:01:16;;;;;;;40.70;27.10;;;8.30;99.90;;;;;;4789221;30;20485;-82
2023/04/09 07:03:41;;;;;;;36.50;24.87;;;8.30;99.90;;;;;;4788641;29;20051;-82
2023/04/09 07:06:07;;;;;;;42.20;27.33;;;8.30;99.90;;;;;;4788940;30;20292;-81
2023/04/09 07:08:33;;;;;;;37.27;26.30;;;8.30;99.90;;;;;;4788774;30;20058;-79
2023/04/09 07:10:58;;;;;;;38.83;25.90;;;8.30;99.90;;;;;;4791693;30;20051;-81
2023/04/09 07:13:24;;;;;;;40.73;27.10;;;8.30;99.90;;;;;;4772738;30;20053;-81
2023/04/09 07:15:50;;;;;;;42.80;27.73;;;8.30;99.90;;;;;;4789126;29;20126;-80
2023/04/09 07:18:16;;;;;;;39.53;27.73;;;8.30;99.90;;;;;;4789339;29;20063;-80
2023/04/09 07:20:41;;;;;;;42.03;26.57;;;8.30;99.90;;;;;;4788875;30;20059;-80
2023/04/09 07:23:07;;;;;;;40.57;26.70;;;8.30;99.90;;;;;;4772276;30;20553;-80
2023/04/09 07:25:33;;;;;;;40.83;28.00;;;8.30;99.90;;;;;;4789341;29;20063;-81
2023/04/09 07:27:58;;;;;;;39.27;27.80;;;8.30;99.90;;;;;;4788630;30;20142;-81
2023/04/09 07:30:24;;;;;;;40.37;27.93;;;8.30;99.90;;;;;;4788511;30;20093;-80
2023/04/09 07:32:50;;;;;;;36.77;26.53;;;8.30;99.90;;;;;;4788407;30;20107;-80
2023/04/09 07:35:17;;;;;;;38.13;26.73;;;8.40;99.90;;;;;;4788695;29;20097;-80
2023/04/09 07:37:43;;;;;;;40.20;26.60;;;8.40;99.90;;;;;;4772538;30;20308;-79
2023/04/09 07:40:09;;;;;;;38.47;26.67;;;8.40;99.90;;;;;;4788354;29;20292;-79
2023/04/09 07:42:38;;;;;;;39.43;26.47;;;8.40;99.90;;;;;;4788320;29;20056;-79
2023/04/09 07:45:05;;;;;;;39.80;25.47;;;8.40;99.90;;;;;;4788361;30;20289;-80
2023/04/09 07:47:31;;;;;;;36.87;25.90;;;8.50;99.90;;;;;;4788324;30;20417;-79
2023/04/09 07:49:57;;;;;;;40.73;26.23;;;8.50;99.90;;;;;;4788262;30;20317;-79
2023/04/09 07:52:23;;;;;;;37.73;26.10;;;8.50;99.90;;;;;;4772408;30;20398;-79
2023/04/09 07:54:49;;;;;;;36.63;26.30;;;8.50;99.90;;;;;;4788190;30;20073;-80
2023/04/09 07:57:14;;;;;;;37.30;26.37;;;8.50;99.90;;;;;;4771958;30;20056;-79
2023/04/09 07:59:40;;;;;;;40.10;25.70;;;8.50;99.90;;;;;;4788176;30;20054;-80
2023/04/09 08:02:06;;;;;;;38.33;25.57;;;8.60;99.90;;;;;;4788023;29;20055;-79
2023/04/09 08:04:32;;;;;;;34.90;24.73;;;8.50;99.90;;;;;;4788192;30;20055;-79
2023/04/09 08:06:58;;;;;;;40.07;26.83;;;8.60;99.90;;;;;;4772244;30;20047;-83
2023/04/09 08:09:23;;;;;;;39.60;26.77;;;8.70;99.90;;;;;;4788174;30;20064;-80
2023/04/09 08:11:49;;;;;;;38.10;26.20;;;8.70;99.90;;;;;;4788788;29;20086;-80
2023/04/09 08:14:16;;;;;;;39.60;27.80;;;8.70;99.90;;;;;;4772147;29;20475;-80
2023/04/09 08:16:44;;;;;;;36.00;25.17;;;8.70;99.90;;;;;;4775356;30;20489;-80
2023/04/09 08:19:10;;;;;;;39.10;26.60;;;8.80;99.90;;;;;;4792124;30;20296;-81
2023/04/09 08:21:37;;;;;;;36.20;25.00;;;8.80;99.90;;;;;;4791674;30;20287;-81
2023/04/09 08:24:04;;;;;;;37.33;24.47;;;8.80;99.90;;;;;;4791469;29;20301;-80
2023/04/09 08:26:31;;;;;;;32.60;23.30;;;8.80;99.90;;;;;;4792322;30;20308;-84
2023/04/09 08:28:57;;;;;;;35.67;25.07;;;8.80;99.90;;;;;;4791465;30;20684;-82
2023/04/09 08:31:22;;;;;;;34.47;24.70;;;8.80;99.90;;;;;;4760676;30;20292;-81
2023/04/09 08:33:49;;;;;;;35.97;24.90;;;8.80;99.90;;;;;;4791624;30;20346;-81
2023/04/09 08:36:15;;;;;;;32.77;22.83;;;8.90;99.90;;;;;;4791344;30;20047;-79
2023/04/09 08:38:41;;;;;;;34.80;24.30;;;8.90;99.90;;;;;;4762608;30;20337;-80
2023/04/09 08:41:07;;;;;;;32.03;23.80;;;8.90;99.90;;;;;;4792851;29;20396;-82
2023/04/09 08:43:34;;;;;;;38.10;25.57;;;8.90;99.90;;;;;;4775932;30;20054;-82
2023/04/09 08:46:02;;;;;;;36.33;25.50;;;8.90;99.90;;;;;;4791286;29;20047;-81
2023/04/09 08:48:28;;;;;;;36.20;24.27;;;8.90;99.90;;;;;;4791268;30;20288;-81
2023/04/09 08:50:54;;;;;;;35.83;24.87;;;8.90;99.90;;;;;;4791128;30;20285;-81
2023/04/09 08:53:21;;;;;;;36.30;24.87;;;8.90;99.90;;;;;;4791860;30;20372;-80
2023/04/09 08:55:47;;;;;;;34.53;25.13;;;8.90;99.90;;;;;;4791369;29;20692;-80
2023/04/09 08:58:13;;;;;;;35.30;24.83;;;8.90;99.90;;;;;;4790648;30;20301;-81
2023/04/09 09:00:39;;;;;;;33.83;23.10;;;9.00;99.90;;;;;;4790962;30;20337;-82
2023/04/09 09:03:11;;;;;;;35.20;23.83;;;9.00;99.90;;;;;;4791661;30;20696;-82
2023/04/09 09:05:45;;;;;;;32.03;22.33;;;9.00;99.90;;;;;;4775315;30;20090;-82
2023/04/09 09:08:13;;;;;;;34.60;24.07;;;9.10;99.90;;;;;;4774740;30;20320;-80
2023/04/09 09:10:43;;;;;;;33.40;23.30;;;9.10;99.90;;;;;;4791214;30;20291;-80
2023/04/09 09:13:21;;;;;;;35.97;24.23;;;9.10;99.90;;;;;;4791317;30;20293;-81
2023/04/09 09:15:51;;;;;;;33.13;23.63;;;9.10;99.90;;;;;;4775612;30;20312;-80
2023/04/09 09:18:18;;;;;;;36.93;25.33;;;9.10;99.90;;;;;;4791455;30;20321;-77
2023/04/09 09:20:44;;;;;;;34.77;23.63;;;9.10;99.90;;;;;;4791431;30;20326;-82
2023/04/09 09:23:10;;;;;;;33.40;24.17;;;9.20;99.90;;;;;;4790520;29;20770;-83
2023/04/09 09:25:40;;;;;;;34.30;23.63;;;9.20;99.90;;;;;;4774781;29;20059;-85
2023/04/09 09:28:11;;;;;;;33.70;22.70;;;9.30;99.90;;;;;;4789377;30;20688;-80
2023/04/09 09:30:39;;;;;;;31.97;23.33;;;9.20;99.90;;;;;;4774470;30;20380;-83
2023/04/09 09:33:09;;;;;;;32.90;23.40;;;9.30;99.90;;;;;;4790427;30;20384;-84
2023/04/09 09:35:49;;;;;;;32.13;22.87;;;9.40;99.90;;;;;;4790437;30;20700;-81
2023/04/09 09:38:15;;;;;;;32.47;21.93;;;9.50;99.90;;;;;;4790435;29;20707;-84
2023/04/09 09:40:41;;;;;;;36.30;24.87;;;9.50;99.90;;;;;;4790358;29;20376;-78
2023/04/09 09:43:07;;;;;;;37.00;24.60;;;9.60;99.90;;;;;;4790686;30;20400;-81
2023/04/09 09:45:35;;;;;;;31.93;23.80;;;9.70;99.90;;;;;;4774465;30;20396;-80
2023/04/09 09:48:01;;;;;;;34.17;23.40;;;9.70;99.90;;;;;;4790239;30;20047;-81
2023/04/09 09:50:31;;;;;;;33.70;23.83;;;9.70;99.90;;;;;;4790722;29;20339;-77
2023/04/09 09:53:07;;;;;;;33.17;24.37;;;9.80;99.90;;;;;;4790138;29;20292;-77
2023/04/09 09:55:36;;;;;;;35.30;23.67;;;9.80;99.90;;;;;;4790119;30;20658;-78
2023/04/09 09:58:11;;;;;;;34.77;25.73;;;9.80;99.90;;;;;;4789973;29;20293;-78
2023/04/09 10:00:39;;;;;;;36.80;25.80;;;9.80;99.90;;;;;;4774114;30;20304;-79
2023/04/09 10:03:14;;;;;;;34.67;24.57;;;9.80;99.90;;;;;;4774166;30;20051;-81
2023/04/09 10:05:41;;;;;;;36.43;25.53;;;9.80;99.90;;;;;;4774177;30;20763;-80
2023/04/09 10:08:07;;;;;;;33.67;24.17;;;9.90;99.90;;;;;;4789845;30;20113;-81
2023/04/09 10:10:33;;;;;;;34.37;23.13;;;9.90;99.90;;;;;;4789817;30;20296;-84
2023/04/09 10:12:59;;;;;;;32.33;23.03;;;10.00;99.90;;;;;;4790499;29;20735;-78
2023/04/09 10:15:27;;;;;;;32.00;23.57;;;10.00;99.90;;;;;;4789695;29;20324;-77
2023/04/09 10:17:54;;;;;;;32.97;24.00;;;10.10;99.90;;;;;;4758966;30;20088;-75
2023/04/09 10:20:31;;;;;;;34.93;23.67;;;10.00;99.90;;;;;;4773712;30;20292;-78
2023/04/09 10:23:00;;;;;;;33.93;24.23;;;10.10;99.90;;;;;;4790157;30;20313;-83
2023/04/09 10:25:27;;;;;;;31.27;23.07;;;10.10;99.90;;;;;;4789636;30;20281;-74
2023/04/09 10:28:01;;;;;;;29.80;21.73;;;10.20;99.90;;;;;;4773619;30;20297;-80
2023/04/09 10:30:34;;;;;;;31.03;22.73;;;10.30;99.90;;;;;;4789755;30;20392;-84
2023/04/09 10:33:12;;;;;;;33.33;23.53;;;10.40;99.90;;;;;;4773568;30;20297;-83
2023/04/09 10:35:38;;;;;;;32.53;23.27;;;10.40;99.90;;;;;;4789887;29;20300;-84
2023/04/09 10:38:12;;;;;;;29.80;22.93;;;10.60;99.90;;;;;;4788860;29;20293;-83
2023/04/09 10:40:50;;;;;;;30.67;22.70;;;10.70;99.90;;;;;;4773674;30;20059;-84
2023/04/09 10:43:21;;;;;;;29.60;22.10;;;10.80;99.90;;;;;;4773095;30;20395;-84
2023/04/09 10:45:52;;;;;;;31.10;22.67;;;11.00;99.90;;;;;;4789207;30;20293;-83
2023/04/09 10:48:20;;;;;;;31.37;21.90;;;11.10;99.90;;;;;;4789199;30;20864;-86
2023/04/09 10:50:52;;;;;;;30.20;20.77;;;11.10;99.90;;;;;;4789093;29;20308;-85
2023/04/09 10:53:23;;;;;;;30.67;21.33;;;11.20;99.90;;;;;;4789174;30;20275;-85
2023/04/09 10:55:50;;;;;;;31.73;22.77;;;11.30;99.90;;;;;;4789055;29;20299;-82
2023/04/09 10:58:16;;;;;;;27.33;20.63;;;11.30;99.90;;;;;;4772928;30;20801;-83
2023/04/09 11:00:46;;;;;;;29.97;21.80;;;11.40;99.90;;;;;;4788989;30;20289;-75
2023/04/09 11:03:26;;;;;;;29.23;21.83;;;11.50;99.90;;;;;;4772788;30;20320;-74
2023/04/09 11:06:04;;;;;;;25.13;19.83;;;11.50;99.90;;;;;;4789606;30;20293;-85
2023/04/09 11:08:32;;;;;;;26.53;20.13;;;11.70;99.90;;;;;;4773219;30;20369;-83
2023/04/09 11:10:59;;;;;;;28.93;22.23;;;11.70;99.90;;;;;;4789528;30;20767;-83
2023/04/09 11:13:26;;;;;;;30.50;22.93;;;11.80;99.90;;;;;;4772961;30;20390;-81
2023/04/09 11:15:54;;;;;;;32.87;23.90;;;11.90;99.90;;;;;;4788672;29;20800;-82
2023/04/09 11:18:26;;;;;;;32.30;23.83;;;11.90;99.90;;;;;;4789117;30;20383;-81
2023/04/09 11:20:58;;;;;;;33.73;23.63;;;11.90;99.90;;;;;;4788723;29;20281;-81
2023/04/09 11:23:25;;;;;;;31.07;22.70;;;11.80;99.90;;;;;;4772513;30;20894;-81
2023/04/09 11:25:51;;;;;;;31.20;22.87;;;11.70;99.90;;;;;;4772725;30;20307;-81
2023/04/09 11:28:18;;;;;;;28.43;22.93;;;11.70;99.90;;;;;;4788500;29;20297;-82
2023/04/09 11:30:45;;;;;;;30.30;22.63;;;11.60;99.90;;;;;;4772661;30;20634;-82
2023/04/09 11:33:11;;;;;;;31.40;24.83;;;11.60;99.90;;;;;;4788475;30;20285;-83
2023/04/09 11:35:37;;;;;;;29.73;21.77;;;11.70;99.90;;;;;;4788454;30;20329;-85
2023/04/09 11:38:08;;;;;;;29.23;21.37;;;11.70;99.90;;;;;;4772594;30;20402;-85
2023/04/09 11:40:34;;;;;;;30.30;23.70;;;11.70;99.90;;;;;;4788329;30;20489;-77
2023/04/09 11:43:01;;;;;;;30.20;22.33;;;11.70;99.90;;;;;;4757476;30;20331;-83
2023/04/09 11:45:29;;;;;;;30.83;22.83;;;11.70;99.90;;;;;;4788254;30;20066;-77
2023/04/09 11:47:56;;;;;;;27.60;20.50;;;11.80;99.90;;;;;;4757687;30;20305;-81
2023/04/09 11:50:22;;;;;;;28.67;22.10;;;11.90;99.90;;;;;;4772163;30;20711;-81
2023/04/09 11:52:49;;;;;;;29.37;22.27;;;11.90;99.90;;;;;;4788215;30;20368;-81
2023/04/09 11:55:25;;;;;;;28.97;22.33;;;12.00;99.90;;;;;;4788721;30;20401;-78
2023/04/09 11:58:01;;;;;;;29.97;22.27;;;12.10;99.90;;;;;;4787803;29;20296;-79
2023/04/09 12:00:27;;;;;;;27.33;20.57;;;12.10;99.90;;;;;;4788213;30;20761;-77
2023/04/09 12:03:04;;;;;;;26.87;20.47;;;12.20;99.90;;;;;;4772123;30;20312;-76
2023/04/09 12:05:32;;;;;;;26.77;20.30;;;12.20;99.90;;;;;;4788037;30;20346;-78
2023/04/09 12:08:07;;;;;;;29.03;20.43;;;12.20;99.90;;;;;;4788356;30;20361;-77
2023/04/09 12:10:35;;;;;;;26.07;19.13;;;12.30;99.90;;;;;;4788198;30;20285;-79
2023/04/09 12:13:10;;;;;;;26.90;20.70;;;12.30;99.90;;;;;;4788607;29;20285;-77
2023/04/09 12:15:39;;;;;;;28.33;21.98;;;12.50;99.90;;;;;;4788626;30;20346;-77
2023/04/09 12:18:10;;;;;;;28.57;21.57;;;12.60;99.90;;;;;;4772940;30;20055;-78
2023/04/09 12:20:38;;;;;;;28.67;20.83;;;12.70;99.90;;;;;;4788281;30;20303;-72
2023/04/09 12:23:05;;;;;;;28.20;20.57;;;12.70;99.90;;;;;;4787943;30;20312;-72
2023/04/09 12:25:36;;;;;;;26.77;19.73;;;12.70;99.90;;;;;;4787989;30;20292;-72
2023/04/09 12:28:04;;;;;;;24.40;18.63;;;12.70;99.90;;;;;;4772665;30;20291;-72
2023/04/09 12:30:31;;;;;;;25.77;19.20;;;12.80;99.90;;;;;;4787870;29;20349;-72
2023/04/09 12:32:57;;;;;;;24.83;18.87;;;12.70;99.90;;;;;;4787702;30;20652;-76
2023/04/09 12:35:23;;;;;;;23.40;18.13;;;12.70;99.90;;;;;;4757234;30;20301;-74
2023/04/09 12:37:50;;;;;;;27.10;19.07;;;12.80;99.90;;;;;;4787898;30;20295;-73